GLO9334 SBVC-SBGR
Flight info
| Callsign | GLO9334 |
|---|---|
| Flight time | 1h 43m |
| Altitude | 38000 |
| Route | MOTBO DCT OBDUV UZ21 VUNOX/N0381F220 |
| Aircraft | B38M/M-SDFGHIJ4J5KLORWXY/LB1 |
Departure
| Time | 2026-05-07 23:34 |
|---|---|
| Airport | Glauber de Andrade Rocha Airport (SBVC) |
Arrival
| Time | 2026-05-08 01:17 |
|---|---|
| Airport | São Paulo/Guarulhos–Governor André Franco Montoro International Airport (SBGR) |
| Time | Latitude | Longitude | Altitude | Speed | Heading |
|---|---|---|---|---|---|
| 2026-05-07 23:18 | -14.90957 | -40.91710 | 2936 ft | 0 kts | 212° |
| 2026-05-07 23:25 | -14.90941 | -40.91698 | 2925 ft | 3 kts | 227° |
| 2026-05-07 23:25 | -14.90933 | -40.91687 | 2934 ft | 3 kts | 241° |
| 2026-05-07 23:26 | -14.90925 | -40.91669 | 2936 ft | 2 kts | 247° |
| 2026-05-07 23:26 | -14.90922 | -40.91661 | 2929 ft | 1 kts | 246° |
| 2026-05-07 23:26 | -14.90921 | -40.91661 | 2929 ft | 0 kts | 246° |
| 2026-05-07 23:30 | -14.90923 | -40.91666 | 2928 ft | 2 kts | 258° |
| 2026-05-07 23:30 | -14.90915 | -40.91688 | 2932 ft | 6 kts | 301° |
| 2026-05-07 23:30 | -14.90874 | -40.91725 | 2936 ft | 10 kts | 350° |
| 2026-05-07 23:30 | -14.90798 | -40.91681 | 2936 ft | 16 kts | 36° |
| 2026-05-07 23:31 | -14.90714 | -40.91596 | 2933 ft | 19 kts | 85° |
| 2026-05-07 23:31 | -14.90791 | -40.91470 | 2934 ft | 24 kts | 126° |
| 2026-05-07 23:31 | -14.90894 | -40.91324 | 2932 ft | 26 kts | 126° |
| 2026-05-07 23:31 | -14.91004 | -40.91170 | 2930 ft | 27 kts | 126° |
| 2026-05-07 23:32 | -14.91120 | -40.91010 | 2930 ft | 29 kts | 127° |
| 2026-05-07 23:32 | -14.91241 | -40.90842 | 2927 ft | 27 kts | 127° |
| 2026-05-07 23:32 | -14.91293 | -40.90708 | 2924 ft | 13 kts | 90° |
| 2026-05-07 23:32 | -14.91332 | -40.90695 | 2924 ft | 6 kts | 245° |
| 2026-05-07 23:33 | -14.91321 | -40.90729 | 2924 ft | 5 kts | 302° |
| 2026-05-07 23:33 | -14.91253 | -40.90823 | 2926 ft | 45 kts | 307° |
| 2026-05-07 23:33 | -14.90907 | -40.91305 | 2929 ft | 120 kts | 306° |
| 2026-05-07 23:33 | -14.90286 | -40.92182 | 2952 ft | 180 kts | 307° |
| 2026-05-07 23:34 | -14.89510 | -40.93293 | 3484 ft | 200 kts | 308° |
| 2026-05-07 23:34 | -14.88670 | -40.94528 | 4129 ft | 217 kts | 307° |
| 2026-05-07 23:34 | -14.87972 | -40.95949 | 4941 ft | 228 kts | 284° |
| 2026-05-07 23:34 | -14.87875 | -40.97614 | 5559 ft | 243 kts | 255° |
| 2026-05-07 23:35 | -14.88740 | -40.99179 | 5969 ft | 267 kts | 217° |
| 2026-05-07 23:35 | -14.90374 | -40.99915 | 6880 ft | 262 kts | 182° |
| 2026-05-07 23:35 | -14.92222 | -40.99796 | 7615 ft | 274 kts | 168° |
| 2026-05-07 23:35 | -14.94158 | -40.99544 | 8447 ft | 285 kts | 175° |
| 2026-05-07 23:36 | -14.96155 | -40.99607 | 9482 ft | 291 kts | 181° |
| 2026-05-07 23:36 | -14.98203 | -40.99812 | 10357 ft | 300 kts | 185° |
| 2026-05-07 23:36 | -15.00330 | -41.00146 | 10966 ft | 318 kts | 188° |
| 2026-05-07 23:36 | -15.02545 | -41.00593 | 11628 ft | 330 kts | 190° |
| 2026-05-07 23:37 | -15.04815 | -41.01109 | 12474 ft | 335 kts | 191° |
| 2026-05-07 23:37 | -15.07100 | -41.01653 | 13350 ft | 339 kts | 191° |
| 2026-05-07 23:37 | -15.09413 | -41.02219 | 14129 ft | 343 kts | 192° |
| 2026-05-07 23:37 | -15.11741 | -41.02798 | 14888 ft | 346 kts | 192° |
| 2026-05-07 23:38 | -15.14098 | -41.03388 | 15626 ft | 349 kts | 192° |
| 2026-05-07 23:38 | -15.16483 | -41.03989 | 16335 ft | 353 kts | 192° |
| 2026-05-07 23:38 | -15.18849 | -41.04585 | 17036 ft | 356 kts | 192° |
| 2026-05-07 23:38 | -15.21265 | -41.05195 | 17722 ft | 359 kts | 192° |
| 2026-05-07 23:39 | -15.23706 | -41.05810 | 18412 ft | 362 kts | 192° |
| 2026-05-07 23:39 | -15.26169 | -41.06432 | 18971 ft | 365 kts | 192° |
| 2026-05-07 23:39 | -15.28646 | -41.07057 | 19574 ft | 367 kts | 192° |
| 2026-05-07 23:39 | -15.31131 | -41.07684 | 20174 ft | 369 kts | 192° |
| 2026-05-07 23:40 | -15.33636 | -41.08317 | 20744 ft | 371 kts | 192° |
| 2026-05-07 23:40 | -15.36151 | -41.08952 | 21315 ft | 374 kts | 192° |
| 2026-05-07 23:40 | -15.38687 | -41.09592 | 21897 ft | 376 kts | 192° |
| 2026-05-07 23:40 | -15.41237 | -41.10236 | 22463 ft | 378 kts | 193° |
| 2026-05-07 23:41 | -15.43794 | -41.10881 | 23023 ft | 380 kts | 192° |
| 2026-05-07 23:41 | -15.46376 | -41.11532 | 23567 ft | 383 kts | 193° |
| 2026-05-07 23:41 | -15.48972 | -41.12187 | 24040 ft | 385 kts | 193° |
| 2026-05-07 23:41 | -15.51581 | -41.12846 | 24523 ft | 386 kts | 192° |
| 2026-05-07 23:42 | -15.54196 | -41.13506 | 25012 ft | 387 kts | 192° |
| 2026-05-07 23:42 | -15.56813 | -41.14166 | 25486 ft | 388 kts | 192° |
| 2026-05-07 23:42 | -15.59433 | -41.14827 | 25956 ft | 389 kts | 192° |
| 2026-05-07 23:42 | -15.62069 | -41.15493 | 26424 ft | 390 kts | 192° |
| 2026-05-07 23:43 | -15.64713 | -41.16160 | 26876 ft | 391 kts | 192° |
| 2026-05-07 23:43 | -15.67263 | -41.17055 | 27304 ft | 395 kts | 206° |
| 2026-05-07 23:43 | -15.69623 | -41.18533 | 27742 ft | 397 kts | 208° |
| 2026-05-07 23:43 | -15.71994 | -41.19998 | 28147 ft | 398 kts | 208° |
| 2026-05-07 23:44 | -15.74376 | -41.21490 | 28567 ft | 400 kts | 208° |
| 2026-05-07 23:44 | -15.76749 | -41.22988 | 28998 ft | 401 kts | 208° |
| 2026-05-07 23:44 | -15.79138 | -41.24503 | 29408 ft | 403 kts | 208° |
| 2026-05-07 23:44 | -15.81535 | -41.26026 | 29820 ft | 404 kts | 208° |
| 2026-05-07 23:45 | -15.83940 | -41.27554 | 30214 ft | 406 kts | 208° |
| 2026-05-07 23:45 | -15.86347 | -41.29085 | 30525 ft | 407 kts | 208° |
| 2026-05-07 23:45 | -15.88772 | -41.30627 | 30838 ft | 409 kts | 208° |
| 2026-05-07 23:45 | -15.91215 | -41.32182 | 31146 ft | 411 kts | 208° |
| 2026-05-07 23:46 | -15.93652 | -41.33733 | 31467 ft | 412 kts | 208° |
| 2026-05-07 23:46 | -15.96081 | -41.35279 | 31766 ft | 414 kts | 208° |
| 2026-05-07 23:46 | -15.98571 | -41.36865 | 32072 ft | 416 kts | 208° |
| 2026-05-07 23:46 | -16.01014 | -41.38420 | 32371 ft | 418 kts | 208° |
| 2026-05-07 23:47 | -16.03501 | -41.40005 | 32657 ft | 420 kts | 208° |
| 2026-05-07 23:47 | -16.05989 | -41.41591 | 32953 ft | 421 kts | 208° |
| 2026-05-07 23:47 | -16.08502 | -41.43193 | 33256 ft | 422 kts | 208° |
| 2026-05-07 23:47 | -16.11010 | -41.44793 | 33615 ft | 422 kts | 208° |
| 2026-05-07 23:48 | -16.13517 | -41.46392 | 34004 ft | 422 kts | 208° |
| 2026-05-07 23:48 | -16.16018 | -41.47988 | 34360 ft | 421 kts | 208° |
| 2026-05-07 23:48 | -16.18511 | -41.49580 | 34719 ft | 419 kts | 208° |
| 2026-05-07 23:48 | -16.20989 | -41.51162 | 35042 ft | 418 kts | 209° |
| 2026-05-07 23:49 | -16.23466 | -41.52744 | 35413 ft | 416 kts | 209° |
| 2026-05-07 23:49 | -16.25918 | -41.54310 | 35796 ft | 413 kts | 209° |
| 2026-05-07 23:49 | -16.28360 | -41.55871 | 36138 ft | 411 kts | 209° |
| 2026-05-07 23:49 | -16.30798 | -41.57429 | 36430 ft | 410 kts | 209° |
| 2026-05-07 23:50 | -16.33228 | -41.58983 | 36751 ft | 409 kts | 209° |
| 2026-05-07 23:50 | -16.35649 | -41.60532 | 37047 ft | 407 kts | 209° |
| 2026-05-07 23:50 | -16.38020 | -41.62049 | 37344 ft | 406 kts | 209° |
| 2026-05-07 23:50 | -16.40432 | -41.63593 | 37627 ft | 404 kts | 210° |
| 2026-05-07 23:51 | -16.42824 | -41.65124 | 37873 ft | 403 kts | 210° |
| 2026-05-07 23:51 | -16.45216 | -41.66655 | 38071 ft | 403 kts | 210° |
| 2026-05-07 23:51 | -16.49984 | -41.69710 | 38084 ft | 400 kts | 210° |
| 2026-05-07 23:52 | -16.54728 | -41.72751 | 38081 ft | 400 kts | 210° |
| 2026-05-07 23:52 | -16.59472 | -41.75793 | 38092 ft | 401 kts | 210° |
| 2026-05-07 23:53 | -16.64224 | -41.78844 | 38091 ft | 400 kts | 210° |
| 2026-05-07 23:53 | -16.68965 | -41.81888 | 38084 ft | 400 kts | 210° |
| 2026-05-07 23:54 | -16.73677 | -41.84915 | 38088 ft | 401 kts | 210° |
| 2026-05-07 23:54 | -16.78438 | -41.87976 | 38085 ft | 401 kts | 210° |
| 2026-05-07 23:55 | -16.83185 | -41.91029 | 38079 ft | 401 kts | 210° |
| 2026-05-07 23:55 | -16.87893 | -41.94156 | 38080 ft | 402 kts | 216° |
| 2026-05-07 23:56 | -16.92336 | -41.97721 | 38086 ft | 402 kts | 214° |
| 2026-05-07 23:56 | -16.96810 | -42.01226 | 38088 ft | 402 kts | 214° |
| 2026-05-07 23:57 | -17.01262 | -42.04701 | 38100 ft | 402 kts | 214° |
| 2026-05-07 23:57 | -17.05755 | -42.08209 | 38089 ft | 402 kts | 214° |
| 2026-05-07 23:58 | -17.10233 | -42.11707 | 38087 ft | 401 kts | 214° |
| 2026-05-07 23:58 | -17.14712 | -42.15209 | 38097 ft | 402 kts | 214° |
| 2026-05-07 23:59 | -17.19193 | -42.18714 | 38097 ft | 402 kts | 214° |
| 2026-05-07 23:59 | -17.23673 | -42.22220 | 38098 ft | 402 kts | 214° |
| 2026-05-08 00:00 | -17.28157 | -42.25732 | 38097 ft | 402 kts | 214° |
| 2026-05-08 00:00 | -17.32608 | -42.29219 | 38104 ft | 402 kts | 214° |
| 2026-05-08 00:01 | -17.37089 | -42.32732 | 38084 ft | 402 kts | 214° |
| 2026-05-08 00:01 | -17.41566 | -42.36246 | 38112 ft | 403 kts | 214° |
| 2026-05-08 00:02 | -17.46041 | -42.39759 | 38108 ft | 402 kts | 214° |
| 2026-05-08 00:02 | -17.50524 | -42.43281 | 38114 ft | 402 kts | 214° |
| 2026-05-08 00:03 | -17.54977 | -42.46781 | 38114 ft | 402 kts | 214° |
| 2026-05-08 00:03 | -17.59447 | -42.50297 | 38111 ft | 402 kts | 214° |
| 2026-05-08 00:04 | -17.63921 | -42.53818 | 38114 ft | 401 kts | 215° |
| 2026-05-08 00:04 | -17.68391 | -42.57339 | 38109 ft | 401 kts | 214° |
| 2026-05-08 00:05 | -17.72853 | -42.60855 | 38108 ft | 401 kts | 215° |
| 2026-05-08 00:05 | -17.77324 | -42.64381 | 38110 ft | 401 kts | 215° |
| 2026-05-08 00:06 | -17.81787 | -42.67903 | 38113 ft | 401 kts | 214° |
| 2026-05-08 00:06 | -17.86245 | -42.71423 | 38109 ft | 401 kts | 214° |
| 2026-05-08 00:07 | -17.90704 | -42.74946 | 38118 ft | 401 kts | 214° |
| 2026-05-08 00:07 | -17.95137 | -42.78451 | 38110 ft | 401 kts | 214° |
| 2026-05-08 00:08 | -17.99600 | -42.81982 | 38109 ft | 401 kts | 215° |
| 2026-05-08 00:08 | -18.04052 | -42.85506 | 38107 ft | 401 kts | 215° |
| 2026-05-08 00:09 | -18.08509 | -42.89036 | 38117 ft | 401 kts | 215° |
| 2026-05-08 00:09 | -18.12961 | -42.92565 | 38104 ft | 401 kts | 215° |
| 2026-05-08 00:10 | -18.16667 | -42.95505 | 38110 ft | 400 kts | 215° |
| 2026-05-08 00:10 | -18.21115 | -42.99034 | 38103 ft | 400 kts | 215° |
| 2026-05-08 00:11 | -18.25562 | -43.02566 | 38098 ft | 400 kts | 215° |
| 2026-05-08 00:11 | -18.30001 | -43.06093 | 38108 ft | 400 kts | 215° |
| 2026-05-08 00:12 | -18.34446 | -43.09627 | 38107 ft | 400 kts | 215° |
| 2026-05-08 00:12 | -18.38891 | -43.13175 | 38100 ft | 400 kts | 216° |
| 2026-05-08 00:13 | -18.43301 | -43.16747 | 38104 ft | 400 kts | 215° |
| 2026-05-08 00:13 | -18.47717 | -43.20320 | 38107 ft | 400 kts | 216° |
| 2026-05-08 00:14 | -18.52130 | -43.23893 | 38111 ft | 400 kts | 215° |
| 2026-05-08 00:14 | -18.56519 | -43.27449 | 38106 ft | 399 kts | 216° |
| 2026-05-08 00:15 | -18.60919 | -43.31016 | 38101 ft | 399 kts | 216° |
| 2026-05-08 00:15 | -18.65351 | -43.34555 | 38109 ft | 399 kts | 215° |
| 2026-05-08 00:16 | -18.69784 | -43.38078 | 38109 ft | 399 kts | 215° |
| 2026-05-08 00:16 | -18.74215 | -43.41602 | 38105 ft | 398 kts | 215° |
| 2026-05-08 00:17 | -18.78640 | -43.45126 | 38112 ft | 399 kts | 215° |
| 2026-05-08 00:17 | -18.83067 | -43.48653 | 38106 ft | 398 kts | 215° |
| 2026-05-08 00:18 | -18.87494 | -43.52175 | 38102 ft | 398 kts | 214° |
| 2026-05-08 00:18 | -18.91972 | -43.55603 | 38098 ft | 398 kts | 214° |
| 2026-05-08 00:19 | -18.96420 | -43.59017 | 38107 ft | 397 kts | 214° |
| 2026-05-08 00:19 | -19.00888 | -43.62449 | 38093 ft | 397 kts | 214° |
| 2026-05-08 00:20 | -19.05361 | -43.65889 | 38097 ft | 397 kts | 214° |
| 2026-05-08 00:20 | -19.09835 | -43.69331 | 38095 ft | 397 kts | 214° |
| 2026-05-08 00:21 | -19.14300 | -43.72769 | 38097 ft | 397 kts | 214° |
| 2026-05-08 00:21 | -19.18764 | -43.76208 | 38093 ft | 397 kts | 214° |
| 2026-05-08 00:22 | -19.23229 | -43.79651 | 38098 ft | 397 kts | 214° |
| 2026-05-08 00:22 | -19.27291 | -43.82785 | 38093 ft | 397 kts | 214° |
| 2026-05-08 00:23 | -19.31747 | -43.86224 | 38098 ft | 397 kts | 215° |
| 2026-05-08 00:23 | -19.36180 | -43.89649 | 38105 ft | 397 kts | 214° |
| 2026-05-08 00:24 | -19.40637 | -43.93095 | 38122 ft | 396 kts | 215° |
| 2026-05-08 00:24 | -19.45100 | -43.96548 | 38134 ft | 397 kts | 215° |
| 2026-05-08 00:25 | -19.49556 | -43.99997 | 38137 ft | 396 kts | 215° |
| 2026-05-08 00:25 | -19.54009 | -44.03447 | 38155 ft | 396 kts | 215° |
| 2026-05-08 00:26 | -19.58471 | -44.06877 | 38159 ft | 396 kts | 215° |
| 2026-05-08 00:26 | -19.62941 | -44.10310 | 38148 ft | 396 kts | 215° |
| 2026-05-08 00:27 | -19.67400 | -44.13737 | 38140 ft | 396 kts | 215° |
| 2026-05-08 00:27 | -19.71827 | -44.17151 | 38126 ft | 396 kts | 215° |
| 2026-05-08 00:28 | -19.76291 | -44.20600 | 38115 ft | 396 kts | 215° |
| 2026-05-08 00:28 | -19.80743 | -44.24043 | 38111 ft | 396 kts | 215° |
| 2026-05-08 00:29 | -19.85204 | -44.27496 | 38098 ft | 396 kts | 215° |
| 2026-05-08 00:29 | -19.89663 | -44.30949 | 38092 ft | 396 kts | 215° |
| 2026-05-08 00:30 | -19.94096 | -44.34383 | 38097 ft | 396 kts | 215° |
| 2026-05-08 00:30 | -19.98549 | -44.37837 | 38087 ft | 396 kts | 215° |
| 2026-05-08 00:31 | -20.03003 | -44.41293 | 38094 ft | 396 kts | 215° |
| 2026-05-08 00:31 | -20.07456 | -44.44752 | 38093 ft | 396 kts | 216° |
| 2026-05-08 00:32 | -20.11917 | -44.48219 | 38084 ft | 396 kts | 216° |
| 2026-05-08 00:32 | -20.16335 | -44.51653 | 38085 ft | 397 kts | 216° |
| 2026-05-08 00:33 | -20.20799 | -44.55124 | 38097 ft | 396 kts | 216° |
| 2026-05-08 00:33 | -20.25260 | -44.58596 | 38100 ft | 396 kts | 216° |
| 2026-05-08 00:34 | -20.29718 | -44.62068 | 38086 ft | 397 kts | 216° |
| 2026-05-08 00:34 | -20.34141 | -44.65515 | 38092 ft | 397 kts | 216° |
| 2026-05-08 00:35 | -20.38606 | -44.68997 | 38082 ft | 397 kts | 216° |
| 2026-05-08 00:35 | -20.43065 | -44.72478 | 38090 ft | 397 kts | 216° |
| 2026-05-08 00:36 | -20.47519 | -44.75957 | 38090 ft | 397 kts | 216° |
| 2026-05-08 00:36 | -20.51979 | -44.79438 | 38103 ft | 397 kts | 216° |
| 2026-05-08 00:37 | -20.56439 | -44.82921 | 38095 ft | 397 kts | 216° |
| 2026-05-08 00:38 | -20.63101 | -44.88128 | 38090 ft | 397 kts | 216° |
| 2026-05-08 00:38 | -20.67554 | -44.91613 | 38094 ft | 397 kts | 216° |
| 2026-05-08 00:39 | -20.72016 | -44.95106 | 38091 ft | 397 kts | 216° |
| 2026-05-08 00:39 | -20.76474 | -44.98606 | 38098 ft | 397 kts | 216° |
| 2026-05-08 00:40 | -20.80926 | -45.02106 | 38094 ft | 397 kts | 216° |
| 2026-05-08 00:40 | -20.85382 | -45.05612 | 38090 ft | 397 kts | 217° |
| 2026-05-08 00:41 | -20.89837 | -45.09118 | 38099 ft | 397 kts | 216° |
| 2026-05-08 00:41 | -20.94263 | -45.12602 | 38087 ft | 397 kts | 217° |
| 2026-05-08 00:42 | -20.98719 | -45.16112 | 38088 ft | 397 kts | 217° |
| 2026-05-08 00:42 | -21.03170 | -45.19621 | 38089 ft | 398 kts | 217° |
| 2026-05-08 00:43 | -21.07632 | -45.23142 | 38085 ft | 398 kts | 217° |
| 2026-05-08 00:43 | -21.12090 | -45.26662 | 38085 ft | 398 kts | 217° |
| 2026-05-08 00:44 | -21.16518 | -45.30161 | 38077 ft | 398 kts | 217° |
| 2026-05-08 00:44 | -21.20974 | -45.33684 | 38093 ft | 398 kts | 217° |
| 2026-05-08 00:45 | -21.25433 | -45.37213 | 38078 ft | 398 kts | 217° |
| 2026-05-08 00:45 | -21.29883 | -45.40737 | 38079 ft | 398 kts | 217° |
| 2026-05-08 00:46 | -21.34343 | -45.44273 | 38075 ft | 398 kts | 217° |
| 2026-05-08 00:46 | -21.38768 | -45.47783 | 38081 ft | 398 kts | 217° |
| 2026-05-08 00:47 | -21.43248 | -45.51339 | 38084 ft | 398 kts | 217° |
| 2026-05-08 00:47 | -21.47699 | -45.54875 | 38068 ft | 398 kts | 217° |
| 2026-05-08 00:48 | -21.52113 | -45.58348 | 37649 ft | 391 kts | 217° |
| 2026-05-08 00:48 | -21.54282 | -45.60050 | 37403 ft | 380 kts | 217° |
| 2026-05-08 00:48 | -21.56381 | -45.61698 | 37338 ft | 366 kts | 217° |
| 2026-05-08 00:48 | -21.58434 | -45.63311 | 37144 ft | 368 kts | 217° |
| 2026-05-08 00:49 | -21.60538 | -45.64964 | 36700 ft | 380 kts | 217° |
| 2026-05-08 00:49 | -21.62676 | -45.66645 | 36177 ft | 381 kts | 217° |
| 2026-05-08 00:49 | -21.64826 | -45.68336 | 35675 ft | 383 kts | 217° |
| 2026-05-08 00:49 | -21.66983 | -45.70032 | 35183 ft | 383 kts | 217° |
| 2026-05-08 00:50 | -21.69133 | -45.71725 | 34697 ft | 382 kts | 217° |
| 2026-05-08 00:50 | -21.71272 | -45.73409 | 34220 ft | 381 kts | 217° |
| 2026-05-08 00:50 | -21.73390 | -45.75077 | 33684 ft | 380 kts | 217° |
| 2026-05-08 00:50 | -21.75523 | -45.76758 | 33170 ft | 379 kts | 217° |
| 2026-05-08 00:51 | -21.77641 | -45.78428 | 32700 ft | 377 kts | 217° |
| 2026-05-08 00:51 | -21.79756 | -45.80096 | 32242 ft | 376 kts | 217° |
| 2026-05-08 00:51 | -21.81862 | -45.81757 | 31789 ft | 375 kts | 217° |
| 2026-05-08 00:51 | -21.83958 | -45.83410 | 31342 ft | 373 kts | 217° |
| 2026-05-08 00:52 | -21.86046 | -45.85059 | 30903 ft | 372 kts | 217° |
| 2026-05-08 00:52 | -21.88158 | -45.86726 | 30465 ft | 370 kts | 217° |
| 2026-05-08 00:52 | -21.90206 | -45.88344 | 30028 ft | 369 kts | 217° |
| 2026-05-08 00:52 | -21.92271 | -45.89977 | 29545 ft | 368 kts | 217° |
| 2026-05-08 00:53 | -21.94337 | -45.91609 | 29113 ft | 366 kts | 217° |
| 2026-05-08 00:53 | -21.96383 | -45.93227 | 28712 ft | 364 kts | 217° |
| 2026-05-08 00:53 | -21.98429 | -45.94847 | 28305 ft | 363 kts | 217° |
| 2026-05-08 00:53 | -22.00460 | -45.96454 | 27912 ft | 361 kts | 217° |
| 2026-05-08 00:54 | -22.02482 | -45.98054 | 27511 ft | 360 kts | 217° |
| 2026-05-08 00:54 | -22.04496 | -45.99649 | 27113 ft | 358 kts | 217° |
| 2026-05-08 00:54 | -22.06496 | -46.01234 | 26732 ft | 356 kts | 217° |
| 2026-05-08 00:54 | -22.08491 | -46.02815 | 26347 ft | 355 kts | 217° |
| 2026-05-08 00:55 | -22.10476 | -46.04389 | 25973 ft | 353 kts | 217° |
| 2026-05-08 00:55 | -22.12455 | -46.05958 | 25600 ft | 352 kts | 218° |
| 2026-05-08 00:55 | -22.14398 | -46.07500 | 25230 ft | 351 kts | 217° |
| 2026-05-08 00:55 | -22.16358 | -46.09055 | 24851 ft | 350 kts | 218° |
| 2026-05-08 00:56 | -22.18321 | -46.10614 | 24434 ft | 350 kts | 218° |
| 2026-05-08 00:56 | -22.20283 | -46.12173 | 24088 ft | 349 kts | 218° |
| 2026-05-08 00:56 | -22.22237 | -46.13726 | 23727 ft | 348 kts | 218° |
| 2026-05-08 00:56 | -22.24184 | -46.15272 | 23308 ft | 347 kts | 218° |
| 2026-05-08 00:57 | -22.25470 | -46.16295 | 23039 ft | 346 kts | 218° |
| 2026-05-08 00:57 | -22.27403 | -46.17833 | 22665 ft | 343 kts | 218° |
| 2026-05-08 00:57 | -22.29321 | -46.19359 | 22310 ft | 341 kts | 218° |
| 2026-05-08 00:57 | -22.32029 | -46.21120 | 21736 ft | 343 kts | 199° |
| 2026-05-08 00:58 | -22.33572 | -46.21505 | 21486 ft | 344 kts | 189° |
| 2026-05-08 00:58 | -22.35932 | -46.21901 | 21135 ft | 343 kts | 190° |
| 2026-05-08 00:58 | -22.38289 | -46.22300 | 20749 ft | 342 kts | 190° |
| 2026-05-08 00:58 | -22.40649 | -46.22682 | 20369 ft | 342 kts | 189° |
| 2026-05-08 00:59 | -22.43004 | -46.23055 | 19980 ft | 343 kts | 189° |
| 2026-05-08 00:59 | -22.45369 | -46.23425 | 19593 ft | 343 kts | 189° |
| 2026-05-08 00:59 | -22.47738 | -46.23793 | 19196 ft | 345 kts | 189° |
| 2026-05-08 00:59 | -22.50111 | -46.24162 | 18806 ft | 345 kts | 188° |
| 2026-05-08 01:00 | -22.52502 | -46.24533 | 18362 ft | 348 kts | 188° |
| 2026-05-08 01:00 | -22.54896 | -46.24905 | 17979 ft | 348 kts | 188° |
| 2026-05-08 01:00 | -22.57283 | -46.25275 | 17676 ft | 344 kts | 188° |
| 2026-05-08 01:00 | -22.59637 | -46.25641 | 17387 ft | 340 kts | 188° |
| 2026-05-08 01:01 | -22.61939 | -46.25999 | 17104 ft | 336 kts | 188° |
| 2026-05-08 01:01 | -22.64242 | -46.26357 | 16828 ft | 334 kts | 189° |
| 2026-05-08 01:01 | -22.66543 | -46.26715 | 16539 ft | 333 kts | 189° |
| 2026-05-08 01:01 | -22.68832 | -46.27071 | 16253 ft | 334 kts | 188° |
| 2026-05-08 01:02 | -22.71140 | -46.27430 | 15976 ft | 333 kts | 188° |
| 2026-05-08 01:02 | -22.73424 | -46.27786 | 15679 ft | 330 kts | 188° |
| 2026-05-08 01:02 | -22.75682 | -46.28137 | 15412 ft | 328 kts | 189° |
| 2026-05-08 01:02 | -22.77925 | -46.28565 | 15090 ft | 327 kts | 199° |
| 2026-05-08 01:03 | -22.79954 | -46.29635 | 14834 ft | 323 kts | 211° |
| 2026-05-08 01:03 | -22.81923 | -46.30827 | 14571 ft | 324 kts | 211° |
| 2026-05-08 01:03 | -22.83881 | -46.32021 | 14314 ft | 323 kts | 211° |
| 2026-05-08 01:03 | -22.85834 | -46.33223 | 14030 ft | 321 kts | 212° |
| 2026-05-08 01:04 | -22.87767 | -46.34417 | 13740 ft | 319 kts | 212° |
| 2026-05-08 01:04 | -22.89685 | -46.35604 | 13448 ft | 317 kts | 212° |
| 2026-05-08 01:04 | -22.91570 | -46.36773 | 13168 ft | 315 kts | 212° |
| 2026-05-08 01:04 | -22.93478 | -46.37956 | 12900 ft | 315 kts | 212° |
| 2026-05-08 01:05 | -22.95403 | -46.39150 | 12633 ft | 315 kts | 212° |
| 2026-05-08 01:05 | -22.97299 | -46.40328 | 12359 ft | 312 kts | 212° |
| 2026-05-08 01:05 | -22.99149 | -46.41477 | 12109 ft | 310 kts | 212° |
| 2026-05-08 01:05 | -23.01029 | -46.42645 | 11843 ft | 311 kts | 212° |
| 2026-05-08 01:06 | -23.02906 | -46.43811 | 11582 ft | 311 kts | 213° |
| 2026-05-08 01:06 | -23.04783 | -46.44978 | 11302 ft | 311 kts | 213° |
| 2026-05-08 01:06 | -23.06662 | -46.46146 | 11028 ft | 307 kts | 213° |
| 2026-05-08 01:06 | -23.08507 | -46.47293 | 10787 ft | 306 kts | 213° |
| 2026-05-08 01:07 | -23.10355 | -46.48442 | 10520 ft | 306 kts | 213° |
| 2026-05-08 01:07 | -23.12203 | -46.49592 | 10269 ft | 305 kts | 213° |
| 2026-05-08 01:07 | -23.14035 | -46.50736 | 10013 ft | 303 kts | 213° |
| 2026-05-08 01:07 | -23.15857 | -46.51869 | 9717 ft | 300 kts | 214° |
| 2026-05-08 01:08 | -23.17618 | -46.52967 | 9467 ft | 297 kts | 213° |
| 2026-05-08 01:08 | -23.19399 | -46.54076 | 9217 ft | 293 kts | 214° |
| 2026-05-08 01:08 | -23.21143 | -46.55194 | 8949 ft | 289 kts | 217° |
| 2026-05-08 01:08 | -23.22818 | -46.56382 | 8647 ft | 287 kts | 217° |
| 2026-05-08 01:09 | -23.24491 | -46.57566 | 8346 ft | 285 kts | 217° |
| 2026-05-08 01:09 | -23.26152 | -46.58735 | 8103 ft | 284 kts | 217° |
| 2026-05-08 01:09 | -23.27799 | -46.59907 | 7874 ft | 282 kts | 217° |
| 2026-05-08 01:09 | -23.29434 | -46.61070 | 7645 ft | 278 kts | 217° |
| 2026-05-08 01:10 | -23.31039 | -46.62212 | 7463 ft | 273 kts | 217° |
| 2026-05-08 01:10 | -23.32627 | -46.63339 | 7284 ft | 272 kts | 217° |
| 2026-05-08 01:10 | -23.34199 | -46.64455 | 7125 ft | 268 kts | 217° |
| 2026-05-08 01:10 | -23.35753 | -46.65559 | 6904 ft | 264 kts | 217° |
| 2026-05-08 01:11 | -23.37271 | -46.66641 | 6774 ft | 258 kts | 217° |
| 2026-05-08 01:11 | -23.38762 | -46.67703 | 6598 ft | 254 kts | 218° |
| 2026-05-08 01:11 | -23.40227 | -46.68744 | 6393 ft | 248 kts | 218° |
| 2026-05-08 01:11 | -23.41671 | -46.69738 | 6259 ft | 244 kts | 211° |
| 2026-05-08 01:12 | -23.43339 | -46.70131 | 5956 ft | 252 kts | 175° |
| 2026-05-08 01:12 | -23.45000 | -46.69624 | 5827 ft | 245 kts | 161° |
| 2026-05-08 01:12 | -23.46542 | -46.68913 | 5644 ft | 238 kts | 143° |
| 2026-05-08 01:12 | -23.47615 | -46.67631 | 5398 ft | 224 kts | 112° |
| 2026-05-08 01:13 | -23.48010 | -46.66056 | 5235 ft | 211 kts | 84° |
| 2026-05-08 01:13 | -23.47935 | -46.64573 | 5210 ft | 183 kts | 77° |
| 2026-05-08 01:13 | -23.47738 | -46.63249 | 5066 ft | 171 kts | 69° |
| 2026-05-08 01:13 | -23.47460 | -46.62028 | 4924 ft | 162 kts | 65° |
| 2026-05-08 01:14 | -23.47153 | -46.60861 | 4731 ft | 159 kts | 64° |
| 2026-05-08 01:14 | -23.46841 | -46.59718 | 4491 ft | 157 kts | 66° |
| 2026-05-08 01:14 | -23.46532 | -46.58569 | 4285 ft | 158 kts | 67° |
| 2026-05-08 01:14 | -23.46226 | -46.57420 | 4080 ft | 157 kts | 66° |
| 2026-05-08 01:15 | -23.45919 | -46.56280 | 3878 ft | 157 kts | 68° |
| 2026-05-08 01:15 | -23.45610 | -46.55132 | 3688 ft | 158 kts | 68° |
| 2026-05-08 01:15 | -23.45303 | -46.53992 | 3488 ft | 156 kts | 69° |
| 2026-05-08 01:15 | -23.44998 | -46.52861 | 3289 ft | 155 kts | 70° |
| 2026-05-08 01:16 | -23.44696 | -46.51738 | 3081 ft | 154 kts | 72° |
| 2026-05-08 01:16 | -23.44399 | -46.50626 | 2866 ft | 152 kts | 72° |
| 2026-05-08 01:16 | -23.44106 | -46.49527 | 2662 ft | 152 kts | 72° |
| 2026-05-08 01:16 | -23.43808 | -46.48426 | 2488 ft | 151 kts | 71° |
| 2026-05-08 01:17 | -23.43538 | -46.47434 | 2472 ft | 114 kts | 75° |
| 2026-05-08 01:17 | -23.43380 | -46.46848 | 2475 ft | 55 kts | 73° |
| 2026-05-08 01:17 | -23.43289 | -46.46512 | 2472 ft | 39 kts | 73° |
| 2026-05-08 01:17 | -23.43173 | -46.46313 | 2472 ft | 29 kts | 46° |
| 2026-05-08 01:18 | -23.43073 | -46.46212 | 2471 ft | 20 kts | 43° |
| 2026-05-08 01:18 | -23.42959 | -46.46134 | 2471 ft | 20 kts | 351° |
| 2026-05-08 01:18 | -23.42822 | -46.46175 | 2473 ft | 21 kts | 343° |
| 2026-05-08 01:18 | -23.42700 | -46.46244 | 2471 ft | 18 kts | 287° |
| 2026-05-08 01:19 | -23.42725 | -46.46378 | 2471 ft | 19 kts | 253° |
| 2026-05-08 01:19 | -23.42764 | -46.46523 | 2471 ft | 21 kts | 254° |
| 2026-05-08 01:19 | -23.42806 | -46.46680 | 2472 ft | 22 kts | 254° |
| 2026-05-08 01:19 | -23.42852 | -46.46850 | 2472 ft | 24 kts | 253° |
| 2026-05-08 01:20 | -23.42901 | -46.47032 | 2471 ft | 26 kts | 253° |
| 2026-05-08 01:20 | -23.42953 | -46.47219 | 2473 ft | 20 kts | 253° |
| 2026-05-08 01:20 | -23.42992 | -46.47368 | 2472 ft | 21 kts | 254° |
| 2026-05-08 01:20 | -23.42952 | -46.47461 | 2474 ft | 16 kts | 343° |
| 2026-05-08 01:21 | -23.42869 | -46.47531 | 2471 ft | 17 kts | 271° |
| 2026-05-08 01:21 | -23.42902 | -46.47657 | 2472 ft | 19 kts | 252° |
| 2026-05-08 01:21 | -23.42921 | -46.47794 | 2475 ft | 18 kts | 294° |
| 2026-05-08 01:21 | -23.42902 | -46.47849 | 2471 ft | 7 kts | 287° |
| 2026-05-08 01:22 | -23.42889 | -46.47907 | 2472 ft | 8 kts | 283° |
| 2026-05-08 01:22 | -23.42883 | -46.47933 | 2471 ft | 2 kts | 284° |